createdAt,value
2018-12-10T00:01:46.900Z,101164.30
2018-12-10T00:04:23.384Z,101162.58
2018-12-10T00:06:55.455Z,101162.44
2018-12-10T00:09:28.337Z,101157.58
2018-12-10T00:12:03.235Z,101156.63
2018-12-10T00:14:36.801Z,101154.48
2018-12-10T00:17:09.427Z,101159.86
2018-12-10T00:19:45.514Z,101156.41
2018-12-10T00:22:19.233Z,101154.83
2018-12-10T00:24:48.770Z,101147.25
2018-12-10T00:27:18.936Z,101160.18
2018-12-10T00:29:50.379Z,101162.36
2018-12-10T00:32:21.015Z,101166.61
2018-12-10T00:34:50.226Z,101173.34
2018-12-10T00:37:23.563Z,101181.48
2018-12-10T00:39:53.539Z,101189.11
2018-12-10T00:42:23.098Z,101196.73
2018-12-10T00:45:00.413Z,101203.80
2018-12-10T00:47:32.801Z,101203.91
2018-12-10T00:50:02.634Z,101205.06
2018-12-10T00:52:32.855Z,101206.36
2018-12-10T00:55:07.417Z,101214.89
2018-12-10T00:57:47.237Z,101216.32
2018-12-10T01:00:20.142Z,101215.94
2018-12-10T01:02:49.091Z,101220.02
2018-12-10T01:05:17.342Z,101227.51
2018-12-10T01:07:46.207Z,101231.31
2018-12-10T01:10:16.520Z,101233.48
2018-12-10T01:12:45.246Z,101237.52
2018-12-10T01:15:18.160Z,101231.55
2018-12-10T01:17:47.234Z,101244.80
2018-12-10T01:20:16.154Z,101257.17
2018-12-10T01:22:44.971Z,101260.47
2018-12-10T01:25:13.539Z,101259.38
2018-12-10T01:27:42.001Z,101261.69
2018-12-10T01:30:13.580Z,101261.84
2018-12-10T01:32:42.035Z,101268.60
2018-12-10T01:35:11.138Z,101271.42
2018-12-10T01:37:40.157Z,101273.34
2018-12-10T01:40:08.684Z,101280.22
2018-12-10T01:42:40.920Z,101271.70
2018-12-10T01:45:09.636Z,101278.99
2018-12-10T01:47:44.361Z,101298.69
2018-12-10T01:50:14.496Z,101242.94
2018-12-10T01:52:44.799Z,101298.27
2018-12-10T01:55:21.940Z,101299.59
2018-12-10T01:58:27.743Z,101318.63
2018-12-10T02:00:59.531Z,101317.08
2018-12-10T02:03:29.332Z,101318.19
2018-12-10T02:06:04.389Z,101316.33
2018-12-10T02:08:33.172Z,101316.23
2018-12-10T02:11:18.882Z,101319.23
2018-12-10T02:13:52.899Z,101323.42
2018-12-10T02:16:35.719Z,101321.25
2018-12-10T02:19:11.142Z,101315.97
2018-12-10T02:21:47.034Z,101320.48
2018-12-10T02:24:30.844Z,101333.08
2018-12-10T02:27:20.136Z,101328.56
2018-12-10T02:29:50.827Z,101331.91
2018-12-10T02:32:27.772Z,101334.31
2018-12-10T02:34:56.979Z,101338.92
2018-12-10T02:37:26.730Z,101338.16
2018-12-10T02:39:55.461Z,101340.81
2018-12-10T02:42:23.901Z,101341.41
2018-12-10T02:44:52.730Z,101350.97
2018-12-10T02:47:21.621Z,101352.27
2018-12-10T02:49:50.540Z,101350.31
2018-12-10T02:52:19.555Z,101351.73
2018-12-10T02:54:48.795Z,101354.06
2018-12-10T02:57:18.847Z,101352.34
2018-12-10T02:59:48.960Z,101343.28
2018-12-10T03:02:18.079Z,101338.92
2018-12-10T03:04:47.029Z,101349.31
2018-12-10T03:07:21.596Z,101358.40
2018-12-10T03:09:54.024Z,101350.06
2018-12-10T03:12:26.644Z,101352.42
2018-12-10T03:15:14.967Z,101357.30
2018-12-10T03:17:47.127Z,101359.02
2018-12-10T03:20:16.585Z,101363.69
2018-12-10T03:22:45.055Z,101376.95
2018-12-10T03:25:15.181Z,101368.79
2018-12-10T03:27:46.832Z,101368.15
2018-12-10T03:30:18.648Z,101368.53
2018-12-10T03:32:48.809Z,101373.53
2018-12-10T03:35:17.410Z,101376.73
2018-12-10T03:37:45.821Z,101380.48
2018-12-10T03:40:18.119Z,101372.45
2018-12-10T03:42:56.277Z,101381.18
2018-12-10T03:45:32.093Z,101380.53
2018-12-10T03:48:03.657Z,101386.86
2018-12-10T03:50:37.284Z,101380.23
2018-12-10T03:53:07.458Z,101380.14
2018-12-10T03:55:40.217Z,101385.75
2018-12-10T03:58:09.501Z,101387.92
2018-12-10T04:00:38.071Z,101388.27
2018-12-10T04:03:06.451Z,101395.91
2018-12-10T04:05:35.505Z,101399.03
2018-12-10T04:08:04.926Z,101398.16
2018-12-10T04:10:34.457Z,101397.98
2018-12-10T04:13:03.844Z,101403.67
2018-12-10T04:15:34.059Z,101328.79
2018-12-10T04:18:05.691Z,101406.81
2018-12-10T04:20:37.795Z,101413.80
2018-12-10T04:23:07.617Z,101421.53
2018-12-10T04:25:38.500Z,101410.77
2018-12-10T04:28:11.818Z,101418.73
2018-12-10T04:30:41.565Z,101403.42
2018-12-10T04:33:12.672Z,101409.84
2018-12-10T04:35:42.677Z,101416.08
2018-12-10T04:38:13.039Z,101419.20
2018-12-10T04:40:49.141Z,101423.42
2018-12-10T04:43:20.578Z,101428.23
2018-12-10T04:45:51.297Z,101423.32
2018-12-10T04:48:20.645Z,101435.34
2018-12-10T04:50:52.164Z,101433.98
2018-12-10T04:56:07.064Z,101436.03
2018-12-10T04:58:38.266Z,101443.37
2018-12-10T05:01:09.049Z,101453.05
2018-12-10T05:03:41.369Z,101452.97
2018-12-10T05:06:10.265Z,101462.97
2018-12-10T05:08:40.358Z,101459.02
2018-12-10T05:11:18.539Z,101456.28
2018-12-10T05:13:52.993Z,101473.38
2018-12-10T05:16:27.224Z,101467.16
2018-12-10T05:18:59.273Z,101468.11
2018-12-10T05:21:29.191Z,101469.78
2018-12-10T05:23:59.297Z,101473.20
2018-12-10T05:26:28.052Z,101464.79
2018-12-10T05:28:56.452Z,101469.70
2018-12-10T05:31:27.072Z,101480.13
2018-12-10T05:33:55.961Z,101478.42
2018-12-10T05:36:26.024Z,101474.06
2018-12-10T05:38:56.555Z,101486.93
2018-12-10T05:41:25.810Z,101490.43
2018-12-10T05:43:54.624Z,101493.55
2018-12-10T05:48:29.580Z,101497.44
2018-12-10T05:50:57.907Z,101498.00
2018-12-10T05:53:27.964Z,101498.67
2018-12-10T05:55:56.349Z,101502.35
2018-12-10T05:58:25.570Z,101509.83
2018-12-10T06:01:52.882Z,101510.30
2018-12-10T06:04:25.805Z,101515.34
2018-12-10T06:06:55.006Z,101511.63
2018-12-10T06:09:25.568Z,101517.40
2018-12-10T06:11:54.899Z,101521.75
2018-12-10T06:14:25.851Z,101517.13
2018-12-10T06:16:55.348Z,101519.11
2018-12-10T06:20:35.390Z,101524.14
2018-12-10T06:23:05.878Z,101522.81
2018-12-10T06:25:37.988Z,101520.16
2018-12-10T06:28:09.657Z,101527.34
2018-12-10T06:30:38.697Z,101532.09
2018-12-10T06:33:07.615Z,101534.35
2018-12-10T06:35:37.555Z,101543.33
2018-12-10T06:38:08.600Z,101540.88
2018-12-10T06:43:34.702Z,101549.41
2018-12-10T06:46:14.869Z,101547.98
2018-12-10T06:51:41.508Z,101544.02
2018-12-10T06:59:31.570Z,101545.05
2018-12-10T07:02:03.826Z,101545.98
2018-12-10T07:04:51.624Z,101547.98
2018-12-10T07:10:53.889Z,101557.83
2018-12-10T07:13:23.456Z,101554.80
2018-12-10T07:15:53.534Z,101562.46
2018-12-10T07:18:38.192Z,101560.77
2018-12-10T07:21:07.846Z,101565.00
2018-12-10T07:23:38.789Z,101564.27
2018-12-10T07:26:07.346Z,101567.94
2018-12-10T07:28:38.210Z,101566.43
2018-12-10T07:31:06.878Z,101568.23
2018-12-10T07:33:36.975Z,101578.16
2018-12-10T07:36:06.083Z,101584.41
2018-12-10T07:38:47.605Z,101571.55
2018-12-10T07:41:19.744Z,101582.44
2018-12-10T07:43:49.447Z,101594.34
2018-12-10T07:46:20.967Z,101589.99
2018-12-10T07:48:50.868Z,101595.76
2018-12-10T07:51:21.644Z,101596.70
2018-12-10T07:53:50.819Z,101597.09
2018-12-10T07:56:28.809Z,101603.04
2018-12-10T07:58:53.109Z,101607.12
2018-12-10T08:01:23.630Z,101612.41
2018-12-10T08:03:51.854Z,101614.29
2018-12-10T08:06:24.928Z,101616.17
2018-12-10T08:08:57.118Z,101612.20
2018-12-10T08:11:27.519Z,101621.55
2018-12-10T08:16:48.952Z,101623.01
2018-12-10T08:19:20.846Z,101637.97
2018-12-10T08:21:52.160Z,101634.83
2018-12-10T08:24:22.456Z,101632.16
2018-12-10T08:26:56.543Z,101633.02
2018-12-10T08:29:36.535Z,101648.14
2018-12-10T08:32:21.553Z,101655.28
2018-12-10T08:34:51.414Z,101651.77
2018-12-10T08:37:21.446Z,101661.51
2018-12-10T08:39:57.195Z,101652.52
2018-12-10T08:42:35.084Z,101660.09
2018-12-10T08:45:09.219Z,101655.38
2018-12-10T08:47:42.495Z,101656.00
2018-12-10T08:50:41.060Z,101652.77
2018-12-10T08:53:15.720Z,101664.13
2018-12-10T08:55:45.025Z,101660.64
2018-12-10T08:58:14.224Z,101665.72
2018-12-10T09:00:47.978Z,101671.22
2018-12-10T09:03:24.273Z,101578.82
2018-12-10T09:05:53.798Z,101675.48
2018-12-10T09:08:25.497Z,101676.72
2018-12-10T09:10:55.277Z,101682.09
2018-12-10T09:13:24.073Z,101684.63
2018-12-10T09:15:56.682Z,101691.88
2018-12-10T09:18:26.424Z,101683.64
2018-12-10T09:20:59.299Z,101688.92
2018-12-10T09:23:30.080Z,101693.84
2018-12-10T09:26:09.294Z,101549.67
2018-12-10T09:28:39.617Z,101696.41
2018-12-10T09:31:16.017Z,101687.70
2018-12-10T09:33:45.204Z,101695.29
2018-12-10T09:37:04.996Z,101686.01
2018-12-10T09:39:35.020Z,101699.42
2018-12-10T09:42:12.115Z,101695.91
2018-12-10T09:44:43.029Z,101705.03
2018-12-10T09:47:13.175Z,101707.58
2018-12-10T09:52:27.289Z,101698.97
2018-12-10T09:54:58.832Z,101694.14
2018-12-10T09:57:32.613Z,101698.27
2018-12-10T10:00:16.675Z,101704.22
2018-12-10T10:03:00.168Z,101701.69
2018-12-10T10:05:31.746Z,101698.83
2018-12-10T10:08:04.895Z,101700.63
2018-12-10T10:10:35.392Z,101703.84
2018-12-10T10:13:04.046Z,101701.39
2018-12-10T10:15:40.969Z,101710.14
2018-12-10T10:18:09.272Z,101708.52
2018-12-10T10:20:39.547Z,101719.05
2018-12-10T10:23:08.845Z,101717.70
2018-12-10T10:25:38.262Z,101719.25
2018-12-10T10:28:10.638Z,101692.34
2018-12-10T10:30:43.982Z,101712.39
2018-12-10T10:33:14.677Z,101704.94
2018-12-10T10:38:22.770Z,101712.21
2018-12-10T10:40:57.472Z,101715.25
2018-12-10T10:43:28.410Z,101723.30
2018-12-10T10:45:57.118Z,101714.66
2018-12-10T10:48:35.646Z,101718.08
2018-12-10T10:51:08.836Z,101709.53
2018-12-10T10:53:38.012Z,101713.16
2018-12-10T10:56:10.972Z,101697.38
2018-12-10T10:58:49.729Z,101701.59
2018-12-10T11:01:23.688Z,101693.64
2018-12-10T11:03:53.902Z,101688.69
2018-12-10T11:06:24.171Z,101682.64
2018-12-10T11:08:53.272Z,101693.95
2018-12-10T11:11:22.317Z,101725.51
2018-12-10T11:13:58.795Z,101710.29
2018-12-10T11:16:31.907Z,101713.42
2018-12-10T11:19:03.146Z,101707.00
2018-12-10T11:21:35.778Z,101710.59
2018-12-10T11:24:07.350Z,101699.69
2018-12-10T11:26:43.545Z,101704.98
2018-12-10T11:29:14.803Z,101713.89
2018-12-10T11:31:48.899Z,101704.22
2018-12-10T11:37:16.151Z,101695.97
2018-12-10T11:41:41.175Z,101681.14
2018-12-10T11:44:21.242Z,101679.55
2018-12-10T11:46:53.187Z,101675.39
2018-12-10T11:49:26.947Z,101681.44
2018-12-10T11:51:58.959Z,101673.50
2018-12-10T11:54:30.836Z,101676.73
2018-12-10T11:57:05.980Z,101670.83
2018-12-10T11:59:39.296Z,101669.55
2018-12-10T12:02:13.266Z,101661.21
2018-12-10T12:04:51.807Z,101669.00
2018-12-10T12:10:55.196Z,101668.44
2018-12-10T12:13:27.348Z,101658.60
2018-12-10T12:16:04.670Z,101664.34
2018-12-10T12:18:37.019Z,101658.95
2018-12-10T12:21:07.996Z,101661.34
2018-12-10T12:23:53.073Z,101667.59
2018-12-10T12:26:24.986Z,101662.11
2018-12-10T12:28:59.486Z,101658.60
2018-12-10T12:31:31.869Z,101655.12
2018-12-10T12:34:09.559Z,101665.55
2018-12-10T12:36:49.785Z,101666.48
2018-12-10T12:39:21.683Z,101672.74
2018-12-10T12:41:55.528Z,101671.98
2018-12-10T12:44:25.318Z,101670.06
2018-12-10T12:46:57.288Z,101682.86
2018-12-10T12:49:30.744Z,101673.02
2018-12-10T12:52:02.009Z,101671.66
2018-12-10T12:54:38.315Z,101665.11
2018-12-10T12:57:14.680Z,101662.16
2018-12-10T12:59:44.452Z,101664.67
2018-12-10T13:02:16.391Z,101670.91
2018-12-10T13:04:52.551Z,101662.62
2018-12-10T13:07:22.844Z,101662.42
2018-12-10T13:10:03.650Z,101660.63
2018-12-10T13:15:26.661Z,101666.06
2018-12-10T13:17:55.878Z,101655.94
2018-12-10T13:20:31.819Z,101655.29
2018-12-10T13:23:09.847Z,101659.59
2018-12-10T13:25:42.306Z,101665.19
2018-12-10T13:28:14.210Z,101666.67
2018-12-10T13:30:43.719Z,101669.61
2018-12-10T13:33:19.790Z,101668.81
2018-12-10T13:35:56.317Z,101672.33
2018-12-10T13:38:25.866Z,101663.56
2018-12-10T13:40:56.297Z,101657.13
2018-12-10T13:43:26.416Z,101656.44
2018-12-10T13:46:15.478Z,101658.30
2018-12-10T13:48:45.089Z,101673.87
2018-12-10T13:51:16.341Z,101670.30
2018-12-10T13:53:44.733Z,101665.97
2018-12-10T13:56:13.745Z,101669.81
2018-12-10T13:58:43.557Z,101675.23
2018-12-10T14:01:16.428Z,101670.84
2018-12-10T14:06:28.878Z,101660.36
2018-12-10T14:09:07.938Z,101656.84
2018-12-10T14:11:38.524Z,101661.72
2018-12-10T14:14:12.075Z,101653.81
2018-12-10T14:16:44.619Z,101666.30
2018-12-10T14:19:13.991Z,101664.19
2018-12-10T14:21:50.999Z,101676.14
2018-12-10T14:24:21.189Z,101671.75
2018-12-10T14:26:49.821Z,101663.17
2018-12-10T14:29:19.815Z,101672.02
2018-12-10T14:31:49.015Z,101675.67
2018-12-10T14:34:23.405Z,101672.48
2018-12-10T14:36:57.374Z,101682.64
2018-12-10T14:39:34.062Z,101689.67
2018-12-10T14:42:10.874Z,101689.44
2018-12-10T14:44:42.742Z,101695.42
2018-12-10T14:51:28.995Z,101680.66
2018-12-10T14:54:00.064Z,101685.11
2018-12-10T14:56:30.492Z,101688.47
2018-12-10T14:59:00.632Z,101684.36
2018-12-10T15:01:31.110Z,101684.23
2018-12-10T15:04:03.431Z,101689.75
2018-12-10T15:06:32.803Z,101699.22
2018-12-10T15:09:01.358Z,101697.33
2018-12-10T15:11:34.436Z,101697.20
2018-12-10T15:14:08.789Z,101696.64
2018-12-10T15:16:38.818Z,101698.66
2018-12-10T15:19:09.073Z,101697.73
2018-12-10T15:21:39.702Z,101704.34
2018-12-10T15:24:09.571Z,101709.00
2018-12-10T15:26:38.830Z,101706.34
2018-12-10T15:29:09.956Z,101708.52
2018-12-10T15:31:45.297Z,101710.41
2018-12-10T15:34:32.545Z,101724.34
2018-12-10T15:37:12.601Z,101729.56
2018-12-10T15:39:45.928Z,101736.67
2018-12-10T15:42:23.329Z,101732.78
2018-12-10T15:49:41.164Z,101743.58
2018-12-10T15:52:10.435Z,101737.70
2018-12-10T15:54:48.871Z,101731.73
2018-12-10T15:57:20.342Z,101737.70
2018-12-10T16:00:10.594Z,101740.74
2018-12-10T16:05:26.710Z,101750.12
2018-12-10T16:08:10.184Z,101756.16
2018-12-10T16:10:42.750Z,101750.39
2018-12-10T16:13:20.260Z,101751.98
2018-12-10T16:15:49.483Z,101751.34
2018-12-10T16:18:19.787Z,101752.39
2018-12-10T16:22:24.752Z,101756.66
2018-12-10T16:24:54.363Z,101758.83
2018-12-10T16:27:23.339Z,101765.16
2018-12-10T16:29:52.103Z,101765.81
2018-12-10T16:32:22.454Z,101770.27
2018-12-10T16:34:59.477Z,101773.02
2018-12-10T16:37:28.969Z,101772.54
2018-12-10T16:39:58.289Z,101774.90
2018-12-10T16:42:30.651Z,101772.46
2018-12-10T16:45:03.812Z,101777.77
2018-12-10T16:47:36.709Z,101780.31
2018-12-10T16:50:07.528Z,101773.38
2018-12-10T16:52:36.319Z,101769.21
2018-12-10T16:55:05.422Z,101776.80
2018-12-10T16:57:34.703Z,101735.37
2018-12-10T17:00:23.529Z,101791.98
2018-12-10T17:02:53.689Z,101791.97
2018-12-10T17:05:35.047Z,101793.02
2018-12-10T17:08:05.841Z,101799.89
2018-12-10T17:10:35.679Z,101800.63
2018-12-10T17:13:09.144Z,101804.45
2018-12-10T17:15:38.092Z,101801.10
2018-12-10T17:18:06.764Z,101799.20
2018-12-10T17:20:46.647Z,101798.36
2018-12-10T17:24:13.943Z,101798.12
2018-12-10T17:26:44.695Z,101811.48
2018-12-10T17:29:18.930Z,101805.58
2018-12-10T17:31:52.300Z,101811.38
2018-12-10T17:34:26.880Z,101800.17
2018-12-10T17:36:55.971Z,101810.80
2018-12-10T17:39:32.125Z,101819.97
2018-12-10T17:42:04.133Z,101820.52
2018-12-10T17:44:37.301Z,101828.98
2018-12-10T17:47:08.830Z,101828.60
2018-12-10T17:49:38.568Z,101834.05
2018-12-10T17:52:17.150Z,101829.97
2018-12-10T17:54:47.914Z,101826.46
2018-12-10T17:57:25.877Z,101828.48
2018-12-10T17:59:58.348Z,101820.14
2018-12-10T18:02:27.771Z,101823.03
2018-12-10T18:04:59.395Z,101824.16
2018-12-10T18:07:30.740Z,101825.17
2018-12-10T18:10:07.529Z,101830.66
2018-12-10T18:12:42.580Z,101822.94
2018-12-10T18:15:22.248Z,101823.00
2018-12-10T18:19:56.207Z,101810.27
2018-12-10T18:22:28.385Z,101817.17
2018-12-10T18:24:58.732Z,101823.87
2018-12-10T18:27:27.875Z,101825.42
2018-12-10T18:29:58.717Z,101825.77
2018-12-10T18:32:28.532Z,101834.06
2018-12-10T18:35:03.525Z,101837.97
2018-12-10T18:37:38.829Z,101834.59
2018-12-10T18:40:21.410Z,101829.87
2018-12-10T18:42:53.402Z,101830.75
2018-12-10T18:45:24.076Z,101833.61
2018-12-10T18:47:56.094Z,101833.33
2018-12-10T18:50:27.578Z,101835.45
2018-12-10T18:52:58.306Z,101828.91
2018-12-10T18:55:28.931Z,101825.55
2018-12-10T18:58:00.048Z,101825.94
2018-12-10T19:00:44.314Z,101823.47
2018-12-10T19:03:16.029Z,101817.32
2018-12-10T19:05:47.795Z,101826.20
2018-12-10T19:08:17.234Z,101825.27
2018-12-10T19:10:56.211Z,101827.18
2018-12-10T19:13:26.244Z,101832.22
2018-12-10T19:18:45.626Z,101822.89
2018-12-10T19:21:23.457Z,101831.47
2018-12-10T19:23:52.492Z,101828.91
2018-12-10T19:29:42.119Z,101829.89
2018-12-10T19:32:17.976Z,101831.94
2018-12-10T19:34:54.760Z,101830.97
2018-12-10T19:37:31.634Z,101828.43
2018-12-10T19:40:04.343Z,101831.70
2018-12-10T19:42:43.920Z,101834.57
2018-12-10T19:45:18.512Z,101835.32
2018-12-10T19:47:51.820Z,101833.13
2018-12-10T19:50:32.587Z,101833.20
2018-12-10T19:55:57.406Z,101839.09
2018-12-10T19:58:37.724Z,101838.42
2018-12-10T20:01:15.549Z,101836.39
2018-12-10T20:03:55.078Z,101846.86
2018-12-10T20:06:33.762Z,101848.77
2018-12-10T20:09:08.021Z,101840.34
2018-12-10T20:14:50.652Z,101863.50
2018-12-10T20:17:28.037Z,101860.86
2018-12-10T20:19:57.739Z,101869.39
2018-12-10T20:22:28.457Z,101875.88
2018-12-10T20:24:58.781Z,101812.46
2018-12-10T20:27:28.601Z,101863.83
2018-12-10T20:30:03.580Z,101857.19
2018-12-10T20:32:33.328Z,101865.85
2018-12-10T20:35:03.379Z,101852.91
2018-12-10T20:37:36.313Z,101853.98
2018-12-10T20:40:05.217Z,101850.82
2018-12-10T20:42:34.867Z,101852.78
2018-12-10T20:45:08.602Z,101847.42
2018-12-10T20:47:42.671Z,101860.09
2018-12-10T20:50:15.556Z,101865.11
2018-12-10T20:52:44.175Z,101855.63
2018-12-10T20:55:14.572Z,101849.09
2018-12-10T20:57:47.400Z,101846.05
2018-12-10T21:00:24.691Z,101852.80
2018-12-10T21:02:56.215Z,101850.59
2018-12-10T21:05:29.275Z,101846.31
2018-12-10T21:08:06.546Z,101852.33
2018-12-10T21:10:42.129Z,101850.59
2018-12-10T21:13:12.708Z,101842.86
2018-12-10T21:15:46.616Z,101848.09
2018-12-10T21:18:21.810Z,101848.04
2018-12-10T21:20:51.716Z,101845.25
2018-12-10T21:23:20.602Z,101855.31
2018-12-10T21:25:53.466Z,101857.70
2018-12-10T21:28:26.147Z,101856.91
2018-12-10T21:30:56.250Z,101854.98
2018-12-10T21:33:26.249Z,101855.78
2018-12-10T21:35:56.602Z,101859.68
2018-12-10T21:38:25.416Z,101862.91
2018-12-10T21:40:55.657Z,101862.91
2018-12-10T21:43:33.187Z,101856.05
2018-12-10T21:46:09.957Z,101857.81
2018-12-10T21:48:41.743Z,101862.74
2018-12-10T21:51:16.938Z,101862.98
2018-12-10T21:53:45.974Z,101859.50
2018-12-10T21:56:28.458Z,101860.73
2018-12-10T21:58:59.109Z,101859.94
2018-12-10T22:01:34.176Z,101863.72
2018-12-10T22:04:05.767Z,101867.05
2018-12-10T22:06:35.070Z,101868.51
2018-12-10T22:09:05.764Z,101864.64
2018-12-10T22:11:37.178Z,101855.09
2018-12-10T22:14:10.206Z,101852.63
2018-12-10T22:16:41.510Z,101857.06
2018-12-10T22:19:19.799Z,101860.47
2018-12-10T22:22:04.797Z,101861.64
2018-12-10T22:27:15.407Z,101858.86
2018-12-10T22:29:51.484Z,101854.06
2018-12-10T22:32:32.560Z,101852.39
2018-12-10T22:35:15.503Z,101847.95
2018-12-10T22:37:56.355Z,101853.70
2018-12-10T22:40:26.578Z,101853.70
2018-12-10T22:42:56.955Z,101852.85
2018-12-10T22:45:28.855Z,101855.50
2018-12-10T22:48:02.856Z,101863.36
2018-12-10T22:50:32.162Z,101866.94
2018-12-10T22:53:00.834Z,101867.41
2018-12-10T22:55:32.010Z,101873.27
2018-12-10T22:58:01.473Z,101877.52
2018-12-10T23:00:35.520Z,101870.16
2018-12-10T23:03:05.695Z,101867.13
2018-12-10T23:05:37.081Z,101866.41
2018-12-10T23:08:08.608Z,101868.19
2018-12-10T23:10:39.229Z,101871.91
2018-12-10T23:13:17.022Z,101865.97
2018-12-10T23:15:50.569Z,101872.72
2018-12-10T23:18:20.047Z,101877.07
2018-12-10T23:20:49.224Z,101874.42
2018-12-10T23:23:22.001Z,101875.82
2018-12-10T23:25:51.963Z,101874.16
2018-12-10T23:28:21.226Z,101878.98
2018-12-10T23:30:51.774Z,101876.62
2018-12-10T23:35:58.311Z,101873.98
2018-12-10T23:38:32.403Z,101876.50
2018-12-10T23:41:02.318Z,101876.11
2018-12-10T23:43:31.533Z,101887.48
2018-12-10T23:46:05.936Z,101879.95
2018-12-10T23:48:35.706Z,101873.05
2018-12-10T23:51:06.372Z,101884.11
2018-12-10T23:56:19.378Z,101882.66
2018-12-10T23:58:49.750Z,101888.55
